Time;durP1;ratioP1;P1;durP2;ratioP2;P2;SDS_P1;SDS_P2;PMS_P1;PMS_P2;Temp;Humidity;BMP_temperature;BMP_pressure;BME280_temperature;BME280_humidity;BME280_pressure;Samples;Min_cycle;Max_cycle;Signal;HPM_P1;HPM_P2
2023/01/26 00:00:44;;;;;;;18.38;9.88;;;-1.30;98.50;;;;;;5051496;28;20033;-78
2023/01/26 00:03:10;;;;;;;20.38;10.10;;;-1.40;98.30;;;;;;5051584;28;20331;-78
2023/01/26 00:05:37;;;;;;;17.27;9.52;;;-1.40;98.30;;;;;;5050787;28;20613;-81
2023/01/26 00:08:03;;;;;;;17.27;9.82;;;-1.50;98.30;;;;;;5051405;28;20074;-79
2023/01/26 00:10:29;;;;;;;15.45;8.10;;;-1.50;98.50;;;;;;5051502;28;20024;-79
2023/01/26 00:12:55;;;;;;;18.23;10.70;;;-1.40;98.50;;;;;;5051510;28;20040;-79
2023/01/26 00:15:21;;;;;;;18.02;10.43;;;-1.40;98.60;;;;;;5033521;28;20024;-79
2023/01/26 00:17:46;;;;;;;18.65;8.88;;;-1.30;98.60;;;;;;5047278;28;20022;-79
2023/01/26 00:20:12;;;;;;;13.45;8.77;;;-1.30;98.30;;;;;;5033545;28;20029;-78
2023/01/26 00:22:38;;;;;;;16.35;9.40;;;-1.40;98.30;;;;;;5051406;28;20013;-79
2023/01/26 00:25:04;;;;;;;18.90;12.70;;;-1.30;98.50;;;;;;5051775;28;20029;-78
2023/01/26 00:27:32;;;;;;;17.02;9.65;;;-1.30;98.70;;;;;;5051166;28;20074;-78
2023/01/26 00:29:57;;;;;;;16.42;10.00;;;-1.30;98.40;;;;;;5043315;28;20503;-79
2023/01/26 00:32:23;;;;;;;18.50;10.13;;;-1.30;98.40;;;;;;5049586;28;20104;-79
2023/01/26 00:34:49;;;;;;;15.23;9.10;;;-1.30;98.40;;;;;;5051543;28;20071;-78
2023/01/26 00:37:15;;;;;;;17.23;10.38;;;-1.30;98.40;;;;;;5051345;28;20024;-78
2023/01/26 00:39:41;;;;;;;15.68;9.52;;;-1.40;98.60;;;;;;5051249;28;20029;-78
2023/01/26 00:42:08;;;;;;;19.83;10.15;;;-1.40;98.70;;;;;;5051696;28;20033;-78
2023/01/26 00:44:38;;;;;;;16.23;10.63;;;-1.30;98.70;;;;;;5051538;28;20035;-79
2023/01/26 00:47:06;;;;;;;18.90;9.90;;;-1.30;98.80;;;;;;5051616;28;20439;-79
2023/01/26 00:49:31;;;;;;;19.27;10.18;;;-1.20;98.60;;;;;;5051315;28;20489;-79
2023/01/26 00:51:57;;;;;;;14.40;8.77;;;-1.20;98.60;;;;;;5051173;28;20053;-79
2023/01/26 00:54:23;;;;;;;19.73;10.05;;;-1.20;98.40;;;;;;5051151;28;20027;-77
2023/01/26 00:56:49;;;;;;;17.25;9.35;;;-1.20;98.40;;;;;;5051274;28;20505;-78
2023/01/26 00:59:15;;;;;;;13.60;8.48;;;-1.20;98.40;;;;;;5051545;28;20059;-78
2023/01/26 01:01:40;;;;;;;13.55;9.05;;;-1.10;98.40;;;;;;5019803;28;20380;-79
2023/01/26 01:04:06;;;;;;;15.00;8.77;;;-1.10;98.30;;;;;;5051087;28;20033;-78
2023/01/26 01:06:32;;;;;;;19.63;9.13;;;-1.10;98.40;;;;;;5051106;28;20021;-79
2023/01/26 01:08:58;;;;;;;17.90;9.25;;;-1.00;98.40;;;;;;5050941;28;20096;-78
2023/01/26 01:11:24;;;;;;;14.55;8.80;;;-1.00;98.20;;;;;;5051140;28;20032;-78
2023/01/26 01:13:49;;;;;;;13.55;7.75;;;-1.10;98.10;;;;;;5051158;28;20017;-78
2023/01/26 01:16:16;;;;;;;16.17;8.82;;;-1.10;98.20;;;;;;5047698;28;20121;-79
2023/01/26 01:18:42;;;;;;;13.70;7.75;;;-1.10;98.10;;;;;;5053053;28;20055;-78
2023/01/26 01:21:10;;;;;;;18.13;9.65;;;-1.20;98.10;;;;;;5036974;28;20107;-78
2023/01/26 01:23:37;;;;;;;17.10;9.40;;;-1.20;98.10;;;;;;5036948;28;20079;-77
2023/01/26 01:26:04;;;;;;;12.50;8.02;;;-1.10;98.20;;;;;;5054651;28;20099;-78
2023/01/26 01:28:31;;;;;;;14.43;8.27;;;-1.10;98.20;;;;;;5036397;28;20025;-79
2023/01/26 01:30:57;;;;;;;11.68;7.00;;;-1.10;98.10;;;;;;5036694;28;20446;-78
2023/01/26 01:33:23;;;;;;;13.73;7.15;;;-1.10;98.10;;;;;;5054730;28;20025;-78
2023/01/26 01:35:57;;;;;;;16.33;9.25;;;-1.10;98.00;;;;;;5054985;28;20384;-79
2023/01/26 01:38:22;;;;;;;13.88;9.20;;;-1.10;98.00;;;;;;5054110;28;20067;-79
2023/01/26 01:40:48;;;;;;;15.25;8.93;;;-1.10;97.90;;;;;;5054325;28;20053;-79
2023/01/26 01:43:14;;;;;;;14.18;8.48;;;-1.10;97.90;;;;;;5041603;28;20028;-81
2023/01/26 01:45:44;;;;;;;16.05;8.68;;;-1.00;98.00;;;;;;5054125;28;20483;-78
2023/01/26 01:48:14;;;;;;;14.93;7.68;;;-1.00;97.90;;;;;;5052869;28;20503;-78
2023/01/26 01:50:41;;;;;;;14.70;7.97;;;-1.00;97.80;;;;;;5054130;28;20047;-80
2023/01/26 01:53:12;;;;;;;16.30;8.75;;;-1.00;97.80;;;;;;5054012;28;20025;-78
2023/01/26 01:55:38;;;;;;;15.00;8.55;;;-1.00;97.70;;;;;;5054034;28;20086;-79
2023/01/26 01:58:05;;;;;;;19.60;9.03;;;-1.00;97.80;;;;;;5053828;28;20041;-79
2023/01/26 02:00:31;;;;;;;16.17;9.35;;;-1.00;97.80;;;;;;5035960;28;20583;-79
2023/01/26 02:03:23;;;;;;;15.32;8.75;;;-0.90;97.70;;;;;;5049299;28;20109;-79
2023/01/26 02:05:51;;;;;;;12.38;8.88;;;-0.90;97.60;;;;;;5053514;28;20029;-77
2023/01/26 02:08:19;;;;;;;12.95;8.30;;;-1.00;97.50;;;;;;5053700;28;20028;-79
2023/01/26 02:10:48;;;;;;;17.83;9.25;;;-1.00;97.50;;;;;;5035990;28;20504;-78
2023/01/26 02:13:16;;;;;;;15.98;8.88;;;-1.00;97.60;;;;;;5048794;28;20060;-78
2023/01/26 02:15:43;;;;;;;12.20;7.47;;;-1.00;97.50;;;;;;5053605;28;20021;-78
2023/01/26 02:18:10;;;;;;;14.85;9.35;;;-1.00;97.50;;;;;;5047112;28;20014;-79
2023/01/26 02:20:52;;;;;;;16.85;8.43;;;-1.10;97.40;;;;;;5050796;28;20023;-77
2023/01/26 02:23:34;;;;;;;17.70;8.20;;;-1.10;97.50;;;;;;5047527;28;20053;-78
2023/01/26 02:26:14;;;;;;;19.73;9.90;;;-1.00;97.60;;;;;;5023905;28;20017;-80
2023/01/26 02:28:41;;;;;;;19.33;9.75;;;-1.10;97.50;;;;;;5049767;28;20025;-79
2023/01/26 02:31:07;;;;;;;;;;;-1.10;97.50;;;;;;5050428;28;20041;-80
2023/01/26 02:33:34;;;;;;;14.20;8.85;;;-1.10;97.80;;;;;;5048053;28;19912;-79
2023/01/26 02:36:01;;;;;;;14.13;8.68;;;-1.10;97.40;;;;;;5053450;28;20095;-80
2023/01/26 02:38:39;;;;;;;14.15;8.48;;;-1.10;97.50;;;;;;5044781;28;20021;-78
2023/01/26 02:41:12;;;;;;;16.40;9.80;;;-1.20;97.60;;;;;;5050186;28;20036;-79
2023/01/26 02:43:39;;;;;;;15.15;8.52;;;-1.20;97.70;;;;;;5053209;28;20024;-79
2023/01/26 02:46:05;;;;;;;14.93;8.68;;;-1.10;97.70;;;;;;5053295;28;20096;-78
2023/01/26 02:51:16;;;;;;;18.35;8.98;;;-1.20;97.70;;;;;;5053758;28;20043;-79
2023/01/26 02:53:42;;;;;;;14.85;9.57;;;-1.20;97.70;;;;;;5055841;28;20021;-78
2023/01/26 02:56:08;;;;;;;13.38;8.15;;;-1.20;97.80;;;;;;5053676;28;20396;-79
2023/01/26 02:58:34;;;;;;;14.25;8.65;;;-1.20;97.90;;;;;;5054141;28;20040;-78
2023/01/26 03:00:59;;;;;;;16.70;7.85;;;-1.20;97.90;;;;;;5054922;28;20447;-80
2023/01/26 03:03:40;;;;;;;13.18;8.65;;;-1.20;97.90;;;;;;5057005;28;20034;-78
2023/01/26 03:06:10;;;;;;;13.80;7.53;;;-1.20;97.90;;;;;;5068473;28;20033;-79
2023/01/26 03:08:37;;;;;;;17.35;9.95;;;-1.20;97.90;;;;;;5049394;28;20033;-80
2023/01/26 03:11:05;;;;;;;17.67;8.02;;;-1.20;97.90;;;;;;5066493;28;20064;-78
2023/01/26 03:13:31;;;;;;;15.43;9.13;;;-1.20;97.90;;;;;;5068554;28;20013;-78
2023/01/26 03:16:01;;;;;;;16.08;9.05;;;-1.20;97.90;;;;;;5064720;28;20032;-78
2023/01/26 03:27:30;;;;;;;12.93;8.60;;;-1.20;98.00;;;;;;5052529;28;20032;-78
2023/01/26 03:29:32;;;;;;;19.75;10.38;;;-1.20;98.00;;;;;;5038326;28;20052;-77
2023/01/26 03:32:00;;;;;;;17.45;9.60;;;-1.20;98.00;;;;;;5052600;28;20025;-78
2023/01/26 03:34:28;;;;;;;15.85;8.25;;;-1.20;98.00;;;;;;5046718;28;20455;-77
2023/01/26 03:36:54;;;;;;;14.95;9.10;;;-1.20;98.00;;;;;;5046541;28;20017;-77
2023/01/26 03:56:20;;;;;;;15.52;9.27;;;-1.30;98.20;;;;;;5054163;28;20129;-79
2023/01/26 03:58:49;;;;;;;15.55;8.57;;;-1.20;98.20;;;;;;5041746;28;20086;-78
2023/01/26 04:01:25;;;;;;;15.57;9.23;;;-1.20;98.20;;;;;;5051726;28;20036;-79
2023/01/26 04:09:22;;;;;;;17.17;9.75;;;-1.20;98.00;;;;;;5052147;28;20108;-78
2023/01/26 04:11:48;;;;;;;17.17;10.52;;;-1.30;97.90;;;;;;5050509;28;20021;-78
2023/01/26 04:22:29;;;;;;;16.20;10.20;;;-1.20;98.00;;;;;;5051474;28;20461;-79
2023/01/26 04:24:58;;;;;;;16.85;8.82;;;-1.10;98.00;;;;;;5051203;28;20020;-77
2023/01/26 04:27:24;;;;;;;18.45;10.50;;;-1.10;98.00;;;;;;5051370;28;20107;-77
2023/01/26 04:29:50;;;;;;;18.20;10.00;;;-1.10;97.90;;;;;;5051178;28;20120;-78
2023/01/26 04:32:15;;;;;;;17.00;9.80;;;-1.10;97.90;;;;;;5050990;28;20017;-77
2023/01/26 04:34:41;;;;;;;21.13;12.70;;;-1.00;97.80;;;;;;5030115;28;20096;-77
2023/01/26 04:37:08;;;;;;;20.05;8.68;;;-1.10;97.60;;;;;;5047079;28;20083;-78
2023/01/26 04:39:34;;;;;;;19.70;9.30;;;-1.10;97.60;;;;;;5051146;28;20017;-80
2023/01/26 04:41:59;;;;;;;13.55;8.52;;;-1.10;97.60;;;;;;5051450;28;20025;-78
2023/01/26 04:44:25;;;;;;;18.95;10.60;;;-1.10;97.60;;;;;;5051276;28;20104;-78
2023/01/26 04:46:51;;;;;;;14.77;9.32;;;-1.10;97.60;;;;;;5051428;28;20476;-78
2023/01/26 04:49:17;;;;;;;13.80;8.68;;;-1.10;97.50;;;;;;5051068;28;20036;-79
2023/01/26 04:51:43;;;;;;;14.65;9.20;;;-1.10;97.50;;;;;;5051265;28;20109;-78
2023/01/26 04:54:08;;;;;;;16.02;9.70;;;-1.10;97.60;;;;;;5055584;28;20032;-81
2023/01/26 04:56:35;;;;;;;20.00;9.63;;;-1.10;97.50;;;;;;5055953;28;20028;-81
2023/01/26 04:59:04;;;;;;;18.00;10.10;;;-1.10;97.50;;;;;;5056243;28;20036;-78
2023/01/26 05:01:30;;;;;;;19.40;9.60;;;-1.10;97.50;;;;;;5055585;28;20052;-80
2023/01/26 05:03:58;;;;;;;17.15;9.85;;;-1.00;97.40;;;;;;5055936;28;20044;-80
2023/01/26 05:06:24;;;;;;;16.77;9.35;;;-1.00;97.40;;;;;;5053035;28;20025;-80
2023/01/26 05:08:51;;;;;;;16.02;10.23;;;-1.00;97.30;;;;;;5055344;28;20031;-79
2023/01/26 05:11:17;;;;;;;17.40;11.32;;;-1.00;97.40;;;;;;5028756;28;20034;-77
2023/01/26 05:13:45;;;;;;;16.85;9.75;;;-1.00;97.30;;;;;;5054296;28;20021;-78
2023/01/26 05:16:12;;;;;;;;;;;-1.00;97.20;;;;;;5055231;28;20099;-79
2023/01/26 05:18:39;;;;;;;21.35;10.57;;;-1.00;97.10;;;;;;5036913;28;20248;-78
2023/01/26 05:21:05;;;;;;;16.63;10.50;;;-1.10;97.00;;;;;;5054673;28;20024;-79
2023/01/26 05:23:31;;;;;;;17.23;9.15;;;-1.10;97.10;;;;;;5053125;28;20041;-77
2023/01/26 05:25:57;;;;;;;17.48;10.35;;;-1.10;97.00;;;;;;5054695;28;20465;-78
2023/01/26 05:28:23;;;;;;;20.50;11.15;;;-1.10;97.00;;;;;;5054260;28;20029;-78
2023/01/26 05:30:48;;;;;;;15.93;9.10;;;-1.20;97.00;;;;;;5054199;28;20032;-78
2023/01/26 05:33:15;;;;;;;15.40;9.18;;;-1.20;97.10;;;;;;5054634;28;20025;-78
2023/01/26 05:35:41;;;;;;;15.55;10.50;;;-1.20;97.10;;;;;;5054421;28;20122;-79
2023/01/26 05:38:07;;;;;;;15.43;9.40;;;-1.20;97.20;;;;;;5048873;28;20364;-79
2023/01/26 05:40:33;;;;;;;16.88;10.40;;;-1.10;97.20;;;;;;5045217;28;20017;-80
2023/01/26 05:42:59;;;;;;;15.25;11.40;;;-1.10;97.20;;;;;;5036431;28;20384;-79
2023/01/26 05:45:25;;;;;;;16.67;10.00;;;-1.10;97.20;;;;;;5036496;28;20029;-78
2023/01/26 05:47:51;;;;;;;16.42;10.88;;;-1.00;97.20;;;;;;5054067;28;20036;-79
2023/01/26 05:50:17;;;;;;;17.25;10.43;;;-1.00;97.10;;;;;;5054314;28;20028;-78
2023/01/26 05:52:45;;;;;;;20.33;9.70;;;-1.00;96.90;;;;;;5054190;28;20028;-79
2023/01/26 05:55:11;;;;;;;16.00;9.52;;;-1.00;97.00;;;;;;5040195;28;20025;-77
2023/01/26 05:57:37;;;;;;;14.52;10.00;;;-1.00;97.00;;;;;;5053198;28;20037;-78
2023/01/26 06:00:09;;;;;;;16.38;10.13;;;-1.00;97.00;;;;;;5053667;28;20049;-79
2023/01/26 06:02:35;;;;;;;20.38;11.65;;;-1.00;97.00;;;;;;5036485;28;20029;-79
2023/01/26 06:05:01;;;;;;;18.80;11.35;;;-1.00;97.00;;;;;;5034383;28;20029;-79
2023/01/26 06:07:27;;;;;;;16.25;10.10;;;-1.00;97.30;;;;;;5053982;28;20025;-79
2023/01/26 06:09:52;;;;;;;21.73;11.93;;;-0.90;96.90;;;;;;5053497;28;20029;-77
2023/01/26 06:12:20;;;;;;;17.00;10.23;;;-0.90;96.80;;;;;;5052655;28;20076;-78
2023/01/26 06:14:46;;;;;;;16.17;9.38;;;-0.90;96.90;;;;;;5053547;28;20021;-78
2023/01/26 06:17:15;;;;;;;14.82;11.07;;;-0.90;96.80;;;;;;5053504;28;20040;-79
2023/01/26 06:19:41;;;;;;;22.35;10.77;;;-0.90;96.80;;;;;;5053724;28;20021;-79
2023/01/26 06:22:08;;;;;;;19.08;10.75;;;-0.90;96.70;;;;;;5053498;28;20415;-78
2023/01/26 06:24:34;;;;;;;20.00;10.68;;;-0.80;96.80;;;;;;5053644;28;20025;-79
2023/01/26 06:27:01;;;;;;;19.95;10.93;;;-0.80;96.70;;;;;;5052534;28;20063;-77
2023/01/26 06:29:26;;;;;;;19.87;12.87;;;-0.80;96.70;;;;;;5053504;28;20042;-79
2023/01/26 06:31:52;;;;;;;18.45;10.63;;;-0.70;96.70;;;;;;5053402;28;20025;-80
2023/01/26 06:34:18;;;;;;;20.67;11.52;;;-0.70;96.70;;;;;;5053316;28;20021;-78
2023/01/26 06:36:45;;;;;;;15.60;9.55;;;-0.70;96.60;;;;;;5036072;28;20037;-79
2023/01/26 06:39:12;;;;;;;19.90;12.32;;;-0.70;96.50;;;;;;5039140;28;20033;-78
2023/01/26 06:41:38;;;;;;;13.82;9.25;;;-0.70;96.50;;;;;;5053205;28;20017;-78
2023/01/26 06:44:04;;;;;;;16.85;10.18;;;-0.70;96.50;;;;;;5034485;28;20029;-79
2023/01/26 06:46:30;;;;;;;16.77;9.82;;;-0.70;96.50;;;;;;5053059;28;20028;-78
2023/01/26 06:48:56;;;;;;;17.17;10.82;;;-0.70;96.50;;;;;;5053154;28;20025;-79
2023/01/26 06:51:21;;;;;;;16.85;10.90;;;-0.70;96.40;;;;;;5052808;28;20025;-78
2023/01/26 06:53:50;;;;;;;18.70;10.27;;;-0.80;96.50;;;;;;5052788;28;20025;-79
2023/01/26 06:56:16;;;;;;;16.60;8.48;;;-0.70;96.50;;;;;;5052724;28;20028;-76
2023/01/26 06:58:42;;;;;;;15.70;9.30;;;-0.70;96.40;;;;;;5052803;28;20364;-79
2023/01/26 07:01:20;;;;;;;18.67;9.75;;;-0.70;96.40;;;;;;5052276;28;20041;-79
2023/01/26 07:03:51;;;;;;;17.17;9.57;;;-0.70;96.40;;;;;;5040073;28;20032;-80
2023/01/26 07:06:17;;;;;;;14.48;9.38;;;-0.70;96.50;;;;;;5052886;28;20029;-79
2023/01/26 07:08:43;;;;;;;16.42;10.35;;;-0.70;96.40;;;;;;5052614;28;20476;-77
2023/01/26 07:11:10;;;;;;;16.92;10.43;;;-0.70;96.50;;;;;;5052758;28;20476;-79
2023/01/26 07:13:36;;;;;;;14.27;9.32;;;-0.70;96.40;;;;;;5052402;28;20021;-77
2023/01/26 07:16:09;;;;;;;13.15;8.82;;;-0.70;96.50;;;;;;5051078;28;20182;-80
2023/01/26 07:18:36;;;;;;;14.93;8.70;;;-0.70;96.50;;;;;;5052329;28;20044;-79
2023/01/26 07:21:07;;;;;;;19.48;9.18;;;-0.80;96.50;;;;;;5052532;28;20024;-79
2023/01/26 07:23:33;;;;;;;14.30;8.82;;;-0.80;96.50;;;;;;5052425;28;20032;-80
2023/01/26 07:25:59;;;;;;;19.33;10.32;;;-0.70;96.60;;;;;;5052315;28;20047;-79
2023/01/26 07:28:26;;;;;;;22.27;11.13;;;-0.70;96.60;;;;;;5052302;28;20144;-79
2023/01/26 07:30:56;;;;;;;15.30;9.83;;;-0.70;96.50;;;;;;5052233;28;20043;-79
2023/01/26 07:33:21;;;;;;;15.60;9.68;;;-0.60;96.60;;;;;;5051266;28;20039;-80
2023/01/26 07:35:47;;;;;;;17.40;10.32;;;-0.50;96.60;;;;;;5052062;28;20107;-80
2023/01/26 07:38:13;;;;;;;15.52;8.80;;;-0.50;96.50;;;;;;5027321;28;20109;-80
2023/01/26 07:40:39;;;;;;;14.95;9.95;;;-0.40;96.40;;;;;;5044738;28;20029;-80
2023/01/26 07:43:04;;;;;;;16.80;11.23;;;-0.40;96.30;;;;;;5051865;28;20542;-80
2023/01/26 07:45:31;;;;;;;17.23;9.63;;;-0.40;96.30;;;;;;5051878;28;20100;-79
2023/01/26 07:47:56;;;;;;;13.68;9.85;;;-0.30;96.30;;;;;;5050893;28;20029;-78
2023/01/26 07:50:24;;;;;;;14.88;9.60;;;-0.30;96.30;;;;;;5033754;28;20059;-79
2023/01/26 07:52:53;;;;;;;13.95;9.05;;;-0.30;96.10;;;;;;5051455;28;20518;-79
2023/01/26 07:55:19;;;;;;;12.52;8.95;;;-0.20;96.20;;;;;;5051672;28;20025;-79
2023/01/26 07:57:48;;;;;;;18.40;10.30;;;-0.20;96.10;;;;;;5051606;28;20029;-79
2023/01/26 08:00:16;;;;;;;15.50;9.43;;;-0.20;96.00;;;;;;5051413;28;20049;-80
2023/01/26 08:02:41;;;;;;;;;;;-0.10;96.00;;;;;;5051939;28;20089;-79
2023/01/26 08:05:08;;;;;;;14.00;9.02;;;0.00;96.10;;;;;;5050576;28;19995;-78
2023/01/26 08:07:34;;;;;;;13.63;10.05;;;0.00;95.90;;;;;;5051436;28;20073;-78
2023/01/26 08:09:59;;;;;;;12.32;8.23;;;0.00;95.80;;;;;;5051506;28;20025;-78
2023/01/26 08:12:25;;;;;;;11.95;8.60;;;0.00;95.80;;;;;;5051721;28;20044;-80
2023/01/26 08:14:51;;;;;;;14.15;9.25;;;0.00;95.70;;;;;;5051122;28;20365;-78
2023/01/26 08:17:18;;;;;;;12.18;9.18;;;0.00;95.70;;;;;;5051305;28;20127;-79
2023/01/26 08:19:45;;;;;;;14.50;9.10;;;0.10;95.90;;;;;;5051446;28;20120;-80
2023/01/26 08:22:11;;;;;;;12.98;8.73;;;0.10;95.70;;;;;;5050388;28;20044;-78
2023/01/26 08:24:37;;;;;;;16.33;9.80;;;0.10;95.60;;;;;;5051257;28;20418;-79
2023/01/26 08:27:03;;;;;;;14.65;8.85;;;0.20;95.60;;;;;;5050498;28;20025;-79
2023/01/26 08:29:28;;;;;;;14.45;8.88;;;0.20;95.40;;;;;;5051160;28;20033;-78
2023/01/26 08:31:54;;;;;;;16.63;9.80;;;0.20;95.40;;;;;;5051152;28;20426;-79
2023/01/26 08:34:21;;;;;;;13.52;8.30;;;0.20;95.40;;;;;;5051293;28;20079;-79
2023/01/26 08:36:47;;;;;;;15.57;9.30;;;0.20;95.50;;;;;;5051289;28;20040;-79
2023/01/26 08:39:13;;;;;;;13.90;9.02;;;0.20;95.40;;;;;;5048895;28;20394;-80
2023/01/26 08:41:39;;;;;;;16.33;9.68;;;0.20;95.40;;;;;;5051480;28;20119;-78
2023/01/26 08:44:06;;;;;;;14.50;7.95;;;0.20;95.30;;;;;;5051061;28;20029;-80
2023/01/26 08:46:32;;;;;;;14.82;9.52;;;0.20;95.60;;;;;;5051301;28;20445;-78
2023/01/26 08:48:58;;;;;;;15.15;8.27;;;0.30;95.20;;;;;;5033453;28;20392;-79
2023/01/26 08:51:24;;;;;;;19.52;10.13;;;0.30;95.20;;;;;;5051243;28;20021;-79
2023/01/26 08:53:50;;;;;;;20.83;8.45;;;0.30;95.30;;;;;;5049739;28;20516;-79
2023/01/26 08:56:16;;;;;;;11.50;8.15;;;0.30;95.30;;;;;;5033745;28;20361;-79
2023/01/26 08:58:42;;;;;;;17.08;8.38;;;0.40;95.20;;;;;;5033338;28;20028;-78
2023/01/26 09:01:11;;;;;;;14.05;8.88;;;0.30;95.20;;;;;;5050976;28;20132;-80
2023/01/26 09:03:36;;;;;;;16.25;8.85;;;0.40;95.20;;;;;;5050952;28;20025;-78
2023/01/26 09:06:04;;;;;;;15.57;9.15;;;0.40;95.00;;;;;;5050919;28;20028;-79
2023/01/26 09:08:31;;;;;;;13.15;8.45;;;0.40;95.10;;;;;;5050649;28;20376;-79
2023/01/26 09:10:57;;;;;;;13.02;8.18;;;0.40;95.10;;;;;;5050001;28;20523;-77
2023/01/26 09:13:23;;;;;;;13.02;8.38;;;0.40;95.10;;;;;;5050694;28;20021;-80
2023/01/26 09:15:49;;;;;;;11.68;8.05;;;0.40;95.20;;;;;;5033398;28;20111;-76
2023/01/26 09:18:15;;;;;;;12.25;8.05;;;0.50;95.20;;;;;;5050846;28;20021;-79
2023/01/26 09:20:41;;;;;;;13.05;8.77;;;0.50;95.10;;;;;;5051042;28;20041;-79
2023/01/26 09:23:07;;;;;;;14.65;8.55;;;0.50;94.90;;;;;;5050963;28;20053;-79
2023/01/26 09:25:36;;;;;;;18.23;10.13;;;0.40;94.90;;;;;;5050937;28;20056;-80
2023/01/26 09:28:02;;;;;;;12.60;7.22;;;0.50;95.10;;;;;;5032176;28;20036;-79
2023/01/26 09:30:28;;;;;;;11.00;7.53;;;0.50;95.00;;;;;;5033043;28;20037;-77
2023/01/26 09:32:58;;;;;;;11.98;7.43;;;0.50;94.90;;;;;;5050856;28;20024;-78
2023/01/26 09:35:25;;;;;;;13.25;7.78;;;0.50;95.00;;;;;;5050695;28;20457;-79
2023/01/26 09:37:51;;;;;;;13.13;7.63;;;0.60;94.90;;;;;;5047169;28;20112;-79
2023/01/26 09:40:49;;;;;;;12.82;7.78;;;0.60;94.90;;;;;;5043951;28;20163;-79
2023/01/26 09:43:46;;;;;;;14.45;8.07;;;0.50;94.90;;;;;;5053894;28;20379;-79
2023/01/26 09:46:49;;;;;;;11.23;7.95;;;0.50;94.90;;;;;;5050764;28;20087;-79
2023/01/26 09:49:38;;;;;;;12.35;9.38;;;0.50;95.00;;;;;;5036196;28;20037;-80
2023/01/26 09:52:09;;;;;;;13.88;8.40;;;0.50;95.00;;;;;;5053488;28;20036;-79
2023/01/26 09:55:04;;;;;;;11.25;8.20;;;0.60;95.00;;;;;;5053880;28;20032;-79
2023/01/26 09:57:56;;;;;;;13.77;8.55;;;0.60;95.00;;;;;;5049340;28;20025;-79
2023/01/26 10:00:30;;;;;;;15.23;8.38;;;0.60;95.00;;;;;;5003453;28;20053;-79
2023/01/26 10:03:14;;;;;;;14.60;8.90;;;0.50;94.80;;;;;;5053019;28;20430;-80
2023/01/26 10:06:03;;;;;;;11.68;7.70;;;0.50;94.90;;;;;;5035898;28;20029;-78
2023/01/26 10:08:30;;;;;;;14.98;7.28;;;0.50;95.00;;;;;;5023490;28;20033;-78
2023/01/26 10:11:10;;;;;;;14.18;9.18;;;0.40;94.90;;;;;;5053690;28;20025;-80
2023/01/26 10:13:36;;;;;;;13.77;8.38;;;0.40;95.10;;;;;;5053614;28;20053;-78
2023/01/26 10:16:09;;;;;;;10.45;7.03;;;0.50;95.30;;;;;;5053806;28;20053;-79
2023/01/26 10:18:53;;;;;;;17.42;8.60;;;0.50;95.20;;;;;;5053181;28;20017;-80
2023/01/26 10:21:29;;;;;;;14.85;8.20;;;0.50;95.20;;;;;;5045127;28;20028;-79
2023/01/26 10:23:59;;;;;;;14.00;8.85;;;0.40;95.20;;;;;;5053216;28;20024;-79
2023/01/26 10:26:30;;;;;;;15.48;9.00;;;0.50;95.30;;;;;;5053291;28;20540;-79
2023/01/26 10:28:56;;;;;;;15.50;8.85;;;0.60;95.30;;;;;;5053223;28;20013;-80
2023/01/26 10:31:25;;;;;;;16.92;11.95;;;0.60;95.20;;;;;;5053332;28;20047;-79
2023/01/26 10:33:57;;;;;;;17.58;9.75;;;0.60;95.30;;;;;;5052200;28;20438;-79
2023/01/26 10:36:24;;;;;;;16.98;8.35;;;0.60;95.30;;;;;;5035434;28;20166;-79
2023/01/26 10:38:51;;;;;;;12.60;8.35;;;0.70;95.30;;;;;;5041616;28;20048;-79
2023/01/26 10:41:26;;;;;;;13.18;8.23;;;0.60;95.10;;;;;;5051086;28;20103;-80
2023/01/26 10:43:56;;;;;;;12.25;8.18;;;0.60;95.30;;;;;;5053310;28;20029;-79
2023/01/26 10:46:36;;;;;;;16.70;8.45;;;0.60;95.30;;;;;;5052930;28;20447;-79
2023/01/26 10:49:08;;;;;;;11.10;7.97;;;0.60;95.20;;;;;;5053096;28;20077;-79
2023/01/26 10:51:36;;;;;;;12.30;7.50;;;0.50;95.30;;;;;;5051229;28;20087;-79
2023/01/26 10:54:24;;;;;;;16.35;8.77;;;0.50;95.40;;;;;;5052809;28;20108;-78
2023/01/26 10:56:56;;;;;;;12.73;8.38;;;0.50;95.60;;;;;;5052903;28;20040;-79
2023/01/26 10:59:28;;;;;;;16.10;9.45;;;0.40;95.70;;;;;;5053000;28;20591;-80
2023/01/26 11:02:13;;;;;;;15.75;8.98;;;0.40;96.10;;;;;;5052939;28;20033;-81
2023/01/26 11:04:38;;;;;;;20.55;10.60;;;0.30;96.50;;;;;;5025960;28;20032;-79
2023/01/26 11:07:27;;;;;;;12.77;8.82;;;0.20;96.80;;;;;;5053366;28;20025;-79
2023/01/26 11:09:54;;;;;;;14.57;9.38;;;0.10;97.20;;;;;;5031073;28;20098;-80
2023/01/26 11:12:23;;;;;;;14.37;9.80;;;0.00;97.60;;;;;;5052862;28;20120;-79
2023/01/26 11:15:14;;;;;;;15.50;9.07;;;-0.10;97.90;;;;;;5052690;28;20032;-78
2023/01/26 11:18:12;;;;;;;12.88;8.77;;;0.00;98.20;;;;;;5042282;28;20024;-79
2023/01/26 11:20:47;;;;;;;16.08;9.75;;;0.00;98.30;;;;;;5051922;28;20036;-81
2023/01/26 11:23:16;;;;;;;18.23;10.95;;;0.00;98.40;;;;;;5051673;28;20083;-80
2023/01/26 11:26:02;;;;;;;17.98;9.77;;;0.00;98.50;;;;;;5034401;28;20017;-79
2023/01/26 11:28:56;;;;;;;18.52;9.90;;;0.00;98.70;;;;;;5052736;28;20028;-79
2023/01/26 11:31:46;;;;;;;17.27;10.10;;;0.00;98.80;;;;;;5052240;28;20037;-80
2023/01/26 11:34:21;;;;;;;16.27;10.25;;;0.10;98.90;;;;;;5052961;28;20021;-79
2023/01/26 11:37:04;;;;;;;17.23;8.77;;;0.10;98.90;;;;;;5029374;28;20025;-79
2023/01/26 11:39:38;;;;;;;16.98;8.80;;;0.20;98.80;;;;;;5032687;28;20029;-79
2023/01/26 11:42:19;;;;;;;15.10;9.73;;;0.30;98.70;;;;;;5052406;28;20099;-80
2023/01/26 11:44:49;;;;;;;18.20;11.45;;;0.30;98.40;;;;;;5054141;28;20013;-78
2023/01/26 11:47:38;;;;;;;16.95;9.25;;;0.30;98.40;;;;;;5052599;28;20391;-80
2023/01/26 11:50:25;;;;;;;20.38;11.73;;;0.40;98.00;;;;;;5052955;28;20025;-79
2023/01/26 11:53:35;;;;;;;15.55;9.77;;;0.40;97.90;;;;;;5053355;28;20033;-79
2023/01/26 11:56:09;;;;;;;15.40;9.88;;;0.40;97.90;;;;;;5003103;28;20037;-79
2023/01/26 11:59:17;;;;;;;15.75;7.95;;;0.50;97.70;;;;;;5048398;28;20032;-80
2023/01/26 12:01:53;;;;;;;20.90;10.43;;;0.50;97.50;;;;;;5057483;28;20021;-80
2023/01/26 12:04:21;;;;;;;18.38;10.45;;;0.50;97.30;;;;;;5039975;28;20040;-79
2023/01/26 12:06:54;;;;;;;15.90;10.73;;;0.50;97.30;;;;;;5052824;28;20070;-79
2023/01/26 12:09:37;;;;;;;13.70;8.68;;;0.50;97.30;;;;;;5051711;28;20088;-80
2023/01/26 12:12:08;;;;;;;15.35;11.45;;;0.50;97.10;;;;;;5051987;28;20028;-79
2023/01/26 12:15:05;;;;;;;16.42;10.07;;;0.40;97.00;;;;;;5051847;28;20021;-79
2023/01/26 12:17:49;;;;;;;15.95;11.15;;;0.40;97.10;;;;;;5034438;28;20029;-80
2023/01/26 12:20:44;;;;;;;18.77;11.00;;;0.40;97.10;;;;;;5052083;28;20029;-80
2023/01/26 12:23:28;;;;;;;19.17;10.50;;;0.40;97.10;;;;;;5051823;28;20021;-79
2023/01/26 12:26:02;;;;;;;17.13;10.95;;;0.40;97.10;;;;;;5038144;28;20488;-79
2023/01/26 12:29:08;;;;;;;24.20;11.43;;;0.40;97.00;;;;;;5051650;28;20021;-79
2023/01/26 12:31:46;;;;;;;19.95;11.73;;;0.40;97.10;;;;;;5020413;28;20164;-81
2023/01/26 12:34:13;;;;;;;16.90;10.27;;;0.40;97.00;;;;;;5051701;28;20082;-80
2023/01/26 12:37:10;;;;;;;20.67;10.70;;;0.50;97.00;;;;;;5051720;28;20040;-79
2023/01/26 12:39:44;;;;;;;20.23;11.68;;;0.50;96.90;;;;;;4998245;28;20041;-78
2023/01/26 12:42:40;;;;;;;24.30;12.15;;;0.40;96.90;;;;;;5051295;28;20060;-79
2023/01/26 12:45:14;;;;;;;18.48;10.35;;;0.50;97.00;;;;;;5050402;28;20116;-79
2023/01/26 12:47:54;;;;;;;25.42;13.98;;;0.50;96.80;;;;;;5033465;28;20071;-79
2023/01/26 12:50:37;;;;;;;23.48;11.82;;;0.40;96.80;;;;;;5033441;28;20037;-79
2023/01/26 12:53:18;;;;;;;24.15;12.40;;;0.40;96.90;;;;;;5033353;28;20047;-79
2023/01/26 12:55:50;;;;;;;19.85;10.45;;;0.40;96.90;;;;;;5051591;28;20021;-79
2023/01/26 12:58:27;;;;;;;17.88;10.95;;;0.40;96.90;;;;;;5051327;28;20025;-80
2023/01/26 13:01:02;;;;;;;23.58;12.13;;;0.40;96.80;;;;;;5047310;28;20060;-79
2023/01/26 13:03:37;;;;;;;17.65;10.77;;;0.30;96.80;;;;;;5050061;28;20037;-79
2023/01/26 13:06:08;;;;;;;33.38;19.17;;;0.30;96.80;;;;;;5051181;28;20033;-79
2023/01/26 13:08:34;;;;;;;34.58;16.98;;;0.30;97.00;;;;;;5050217;28;20032;-80
2023/01/26 13:11:09;;;;;;;19.30;12.40;;;0.30;97.00;;;;;;5051126;28;20488;-80
2023/01/26 13:13:55;;;;;;;42.42;22.20;;;0.40;96.90;;;;;;5052444;28;20025;-80
2023/01/26 13:16:32;;;;;;;21.42;12.55;;;0.40;96.90;;;;;;5055091;28;20025;-79
2023/01/26 13:19:00;;;;;;;22.50;12.13;;;0.40;96.80;;;;;;5037027;28;20434;-79
2023/01/26 13:21:38;;;;;;;24.60;13.00;;;0.40;96.80;;;;;;5054837;28;20029;-80
2023/01/26 13:24:16;;;;;;;32.67;19.58;;;0.40;96.80;;;;;;5028683;28;20033;-80
2023/01/26 13:26:56;;;;;;;34.97;19.48;;;0.30;96.90;;;;;;5048608;28;20139;-79
2023/01/26 13:29:27;;;;;;;25.20;14.73;;;0.30;97.00;;;;;;5042405;28;20033;-79
2023/01/26 13:31:57;;;;;;;28.77;13.05;;;0.30;97.00;;;;;;5054640;28;20029;-80
2023/01/26 13:34:45;;;;;;;25.98;13.48;;;0.30;97.00;;;;;;5054570;28;20110;-78
2023/01/26 13:37:19;;;;;;;24.52;13.07;;;0.40;97.00;;;;;;5054631;28;20033;-79